Satin, Texas
Current Conditions -  °F | °C
As of 7:35 AM on Friday 19 Dec 2014 (Local Time) from KPWG Reporting Station
Broken Clouds Broken Clouds  
Wind Chill: 41°   Ceiling: 4000
Heat Index: 46°   Visibility: 3mi
Dew Point: 41°   Wind: 12mph
Humidity: 81%   Direction: 50°NE
Pressure: 30.12"   Gusts: NA
Location:  31.35°N, 97.03°W
Report Text: KPWG 191335Z AUTO 05010KT 3SM FEW009 SCT032 BKN040 08/05 A3012 RMK AO1 P0005
Loading
Personal Weather Stations






























Interactive Weather Map New forecast layout! Learn more

10-Day Weather Forecast

Advertisements
Track Severe Weather on mobile